Terminal Aerodrome Forecast
Issued by NWS

Home | Current Version | Previous Version | Text Only | Print | Product List | Glossary On
Versions: 1 2 3 4 5 6 7 8 9 10 11 12 13 14 15 16 17 18
000
FTUS43 KGRB 221131
TAFRHI
TAF
KRHI 221131Z 2212/2312 27004KT P6SM -SN BKN025
      TEMPO 2212/2215 SCT025
     FM221500 25005KT P6SM SCT250
     FM222200 23006KT P6SM SCT070 OVC090
     FM230100 22005KT 5SM -SN BKN035 OVC070
      TEMPO 2302/2306 2SM -FZRASN BKN020
     FM230600 23005KT P6SM BKN025
     FM231000 24004KT P6SM SCT025=

USA.gov is the U.S. government's official web portal to all federal, state and local government web resources and services.